METAR Data

Data at: 0935 UTC 23 Jul 2019

METAR for:KLGA (New York/La Guardia, NY, US)
Text:KLGA 230851Z 35011KT 7SM -RA BKN009 OVC012 21/19 A2971 RMK AO2 RAB0756 SLP060 P0015 60016 T02110194 58011 $
Temperature: 21.1°C ( 70°F)
Dewpoint: 19.4°C ( 67°F) [RH = 90%]
Pressure (altimeter):29.71 inches Hg (1006.2 mb) [Sea level pressure: 1006.0 mb]
Winds:from the N (350 degrees) at 13 MPH (11 knots; 5.7 m/s)
Visibility: 7 sm ( 11 km)
Ceiling:900 feet AGL
Clouds: broken clouds at 900 feet AGL, overcast cloud deck at 1200 feet AGL
Weather:-RA (light rain)
QC Flag:SOME DATA ABOVE MAY BE INACCURATE!!!"$" is an indication the sensor requires maintenance.